createdAt,value
2018-07-07T00:01:16.563Z,100741.42
2018-07-07T00:03:44.998Z,100745.77
2018-07-07T00:06:13.421Z,100743.33
2018-07-07T00:08:41.865Z,100741.38
2018-07-07T00:11:10.281Z,100747.21
2018-07-07T00:13:38.759Z,100742.30
2018-07-07T00:16:07.779Z,100742.33
2018-07-07T00:18:36.253Z,100736.29
2018-07-07T00:21:04.674Z,100738.23
2018-07-07T00:23:33.259Z,100739.63
2018-07-07T00:26:02.553Z,100739.16
2018-07-07T00:28:31.233Z,100742.50
2018-07-07T00:30:59.614Z,100734.54
2018-07-07T00:33:28.094Z,100736.75
2018-07-07T00:35:56.565Z,100739.82
2018-07-07T00:38:24.970Z,100738.73
2018-07-07T00:40:53.385Z,100733.09
2018-07-07T00:43:21.779Z,100740.11
2018-07-07T00:45:50.171Z,100740.29
2018-07-07T00:48:18.605Z,100742.26
2018-07-07T00:50:47.041Z,100742.24
2018-07-07T00:53:15.477Z,100737.89
2018-07-07T00:55:43.921Z,100741.54
2018-07-07T00:58:12.349Z,100740.24
2018-07-07T01:00:48.802Z,100740.52
2018-07-07T01:03:17.254Z,100743.02
2018-07-07T01:05:46.304Z,100742.17
2018-07-07T01:08:15.038Z,100738.09
2018-07-07T01:10:43.616Z,100737.83
2018-07-07T01:13:12.122Z,100737.54
2018-07-07T01:15:40.853Z,100739.20
2018-07-07T01:18:09.845Z,100740.05
2018-07-07T01:20:38.298Z,100732.65
2018-07-07T01:23:06.676Z,100732.66
2018-07-07T01:25:35.079Z,100735.96
2018-07-07T01:28:03.521Z,100731.02
2018-07-07T01:30:32.025Z,100729.10
2018-07-07T01:33:00.415Z,100732.41
2018-07-07T01:35:28.817Z,100731.02
2018-07-07T01:37:57.278Z,100726.66
2018-07-07T01:40:25.674Z,100730.25
2018-07-07T01:42:54.161Z,100734.16
2018-07-07T01:45:22.585Z,100738.27
2018-07-07T01:47:51.016Z,100738.84
2018-07-07T01:50:19.469Z,100739.15
2018-07-07T01:52:47.903Z,100736.72
2018-07-07T01:55:16.328Z,100733.73
2018-07-07T01:57:44.739Z,100732.96
2018-07-07T02:00:13.220Z,100731.62
2018-07-07T02:02:41.728Z,100728.88
2018-07-07T02:05:10.147Z,100723.16
2018-07-07T02:07:38.543Z,100725.06
2018-07-07T02:10:06.992Z,100729.76
2018-07-07T02:12:35.416Z,100733.33
2018-07-07T02:15:03.914Z,100727.28
2018-07-07T02:17:32.381Z,100728.40
2018-07-07T02:20:00.799Z,100723.98
2018-07-07T02:22:29.229Z,100721.52
2018-07-07T02:24:57.684Z,100726.20
2018-07-07T02:27:26.127Z,100729.24
2018-07-07T02:29:55.050Z,100724.30
2018-07-07T02:32:23.457Z,100723.48
2018-07-07T02:34:51.917Z,100726.79
2018-07-07T02:37:20.331Z,100727.88
2018-07-07T02:39:48.753Z,100725.96
2018-07-07T02:42:17.280Z,100726.53
2018-07-07T02:44:45.746Z,100725.42
2018-07-07T02:47:14.189Z,100728.70
2018-07-07T02:49:42.677Z,100729.27
2018-07-07T02:52:11.151Z,100728.70
2018-07-07T02:54:39.741Z,100731.44
2018-07-07T02:57:08.203Z,100729.27
2018-07-07T02:59:36.710Z,100722.97
2018-07-07T03:02:05.154Z,100726.78
2018-07-07T03:04:33.628Z,100729.27
2018-07-07T03:07:02.109Z,100730.09
2018-07-07T03:09:30.574Z,100726.27
2018-07-07T03:11:59.214Z,100730.09
2018-07-07T03:14:27.734Z,100731.45
2018-07-07T03:16:56.213Z,100735.83
2018-07-07T03:19:24.709Z,100735.28
2018-07-07T03:21:53.226Z,100740.47
2018-07-07T03:24:21.724Z,100736.66
2018-07-07T03:26:50.133Z,100742.12
2018-07-07T03:29:18.588Z,100745.94
2018-07-07T03:31:47.831Z,100747.31
2018-07-07T03:34:16.413Z,100747.88
2018-07-07T03:36:45.007Z,100758.80
2018-07-07T03:39:13.829Z,100755.53
2018-07-07T03:41:42.309Z,100760.18
2018-07-07T03:44:10.807Z,100768.11
2018-07-07T03:46:39.286Z,100767.57
2018-07-07T03:49:07.728Z,100769.23
2018-07-07T03:51:36.349Z,100764.27
2018-07-07T03:54:05.042Z,100769.20
2018-07-07T03:56:33.457Z,100778.22
2018-07-07T03:59:01.851Z,100773.84
2018-07-07T04:01:30.275Z,100776.85
2018-07-07T04:03:58.675Z,100771.14
2018-07-07T04:06:27.217Z,100776.88
2018-07-07T04:08:55.771Z,100776.31
2018-07-07T04:11:24.192Z,100783.99
2018-07-07T04:13:52.978Z,100779.33
2018-07-07T04:16:21.485Z,100787.82
2018-07-07T04:18:50.625Z,100785.91
2018-07-07T04:21:19.103Z,100789.19
2018-07-07T04:23:47.532Z,100785.35
2018-07-07T04:26:16.426Z,100786.72
2018-07-07T04:28:45.427Z,100785.91
2018-07-07T04:31:13.873Z,100786.98
2018-07-07T04:33:42.310Z,100791.38
2018-07-07T04:36:10.713Z,100791.09
2018-07-07T04:38:39.110Z,100789.67
2018-07-07T04:41:07.572Z,100789.08
2018-07-07T04:43:36.001Z,100790.95
2018-07-07T04:46:04.702Z,100793.39
2018-07-07T04:48:33.048Z,100796.87
2018-07-07T04:51:01.858Z,100802.09
2018-07-07T04:53:30.403Z,100799.05
2018-07-07T04:55:58.969Z,100803.36
2018-07-07T04:58:27.463Z,100804.73
2018-07-07T05:00:56.026Z,100805.85
2018-07-07T05:03:24.543Z,100804.18
2018-07-07T05:05:53.065Z,100809.35
2018-07-07T05:08:22.229Z,100815.67
2018-07-07T05:10:50.774Z,100809.78
2018-07-07T05:13:19.241Z,100808.84
2018-07-07T05:15:48.202Z,100808.80
2018-07-07T05:18:16.697Z,100810.45
2018-07-07T05:20:45.141Z,100810.15
2018-07-07T05:23:13.688Z,100815.53
2018-07-07T05:25:42.631Z,100819.39
2018-07-07T05:28:11.085Z,100819.83
2018-07-07T05:30:39.533Z,100816.78
2018-07-07T05:33:07.970Z,100823.63
2018-07-07T05:35:36.455Z,100822.73
2018-07-07T05:38:04.896Z,100814.33
2018-07-07T05:40:33.939Z,100817.81
2018-07-07T05:43:02.368Z,100822.32
2018-07-07T05:45:31.177Z,100817.53
2018-07-07T05:47:59.633Z,100820.20
2018-07-07T05:50:28.147Z,100821.06
2018-07-07T05:52:56.628Z,100820.07
2018-07-07T05:55:25.137Z,100823.78
2018-07-07T05:57:53.601Z,100824.27
2018-07-07T06:00:22.052Z,100820.90
2018-07-07T06:02:50.570Z,100827.47
2018-07-07T06:05:19.026Z,100830.78
2018-07-07T06:07:47.508Z,100833.17
2018-07-07T06:10:15.970Z,100832.06
2018-07-07T06:12:44.409Z,100835.72
2018-07-07T06:15:12.891Z,100830.09
2018-07-07T06:17:41.428Z,100830.75
2018-07-07T06:20:09.933Z,100836.14
2018-07-07T06:22:38.392Z,100830.47
2018-07-07T06:25:06.873Z,100833.15
2018-07-07T06:27:35.346Z,100829.13
2018-07-07T06:30:03.853Z,100836.86
2018-07-07T06:32:32.357Z,100843.61
2018-07-07T06:35:00.812Z,100840.19
2018-07-07T06:37:29.280Z,100847.64
2018-07-07T06:39:57.794Z,100839.19
2018-07-07T06:42:26.258Z,100850.32
2018-07-07T06:44:54.710Z,100849.95
2018-07-07T06:47:23.190Z,100852.59
2018-07-07T06:49:51.637Z,100856.06
2018-07-07T06:52:20.049Z,100851.22
2018-07-07T06:54:48.428Z,100856.94
2018-07-07T06:57:16.836Z,100859.78
2018-07-07T06:59:45.336Z,100856.11
2018-07-07T07:02:13.897Z,100856.56
2018-07-07T07:04:42.314Z,100860.59
2018-07-07T07:07:10.776Z,100861.17
2018-07-07T07:09:39.261Z,100864.53
2018-07-07T07:12:07.728Z,100861.80
2018-07-07T07:14:36.194Z,100853.95
2018-07-07T07:17:04.690Z,100859.31
2018-07-07T07:19:33.093Z,100855.11
2018-07-07T07:22:01.558Z,100855.59
2018-07-07T07:24:30.042Z,100858.06
2018-07-07T07:26:58.489Z,100856.78
2018-07-07T07:29:26.880Z,100865.11
2018-07-07T07:31:55.309Z,100866.08
2018-07-07T07:34:23.740Z,100865.39
2018-07-07T07:36:52.302Z,100865.52
2018-07-07T07:39:20.831Z,100862.81
2018-07-07T07:41:50.299Z,100865.67
2018-07-07T07:44:18.690Z,100859.37
2018-07-07T07:46:47.132Z,100858.76
2018-07-07T07:49:15.669Z,100862.74
2018-07-07T07:51:44.085Z,100858.30
2018-07-07T07:54:12.522Z,100859.45
2018-07-07T07:56:42.166Z,100859.88
2018-07-07T07:59:10.584Z,100864.09
2018-07-07T08:01:39.035Z,100863.41
2018-07-07T08:04:07.479Z,100869.03
2018-07-07T08:06:35.915Z,100863.31
2018-07-07T08:09:04.841Z,100867.91
2018-07-07T08:11:33.255Z,100865.08
2018-07-07T08:14:01.670Z,100868.47
2018-07-07T08:16:30.078Z,100871.30
2018-07-07T08:18:58.527Z,100870.23
2018-07-07T08:21:26.952Z,100867.10
2018-07-07T08:23:55.389Z,100868.95
2018-07-07T08:26:23.954Z,100874.19
2018-07-07T08:28:58.994Z,100870.79
2018-07-07T08:31:27.428Z,100874.63
2018-07-07T08:33:55.828Z,100872.77
2018-07-07T08:36:24.251Z,100880.94
2018-07-07T08:38:52.665Z,100875.71
2018-07-07T08:41:21.060Z,100877.70
2018-07-07T08:43:49.527Z,100882.03
2018-07-07T08:46:18.023Z,100885.52
2018-07-07T08:48:46.425Z,100884.22
2018-07-07T08:51:14.921Z,100887.48
2018-07-07T08:53:44.329Z,100884.52
2018-07-07T08:56:13.066Z,100886.67
2018-07-07T08:58:42.162Z,100892.00
2018-07-07T09:01:10.590Z,100895.39
2018-07-07T09:03:39.017Z,100884.27
2018-07-07T09:06:07.493Z,100883.87
2018-07-07T09:08:35.944Z,100887.66
2018-07-07T09:11:04.355Z,100883.38
2018-07-07T09:13:32.789Z,100881.20
2018-07-07T09:16:01.718Z,100879.91
2018-07-07T09:18:30.163Z,100879.09
2018-07-07T09:20:58.582Z,100873.83
2018-07-07T09:23:27.043Z,100870.45
2018-07-07T09:25:55.454Z,100871.92
2018-07-07T09:28:23.920Z,100864.66
2018-07-07T09:30:52.364Z,100866.58
2018-07-07T09:33:20.785Z,100866.18
2018-07-07T09:35:49.257Z,100866.24
2018-07-07T09:38:17.735Z,100866.31
2018-07-07T09:40:46.243Z,100864.64
2018-07-07T09:43:14.718Z,100858.83
2018-07-07T09:45:43.118Z,100861.55
2018-07-07T09:48:11.545Z,100862.93
2018-07-07T09:50:39.967Z,100857.94
2018-07-07T09:53:08.399Z,100857.84
2018-07-07T09:55:36.784Z,100854.67
2018-07-07T09:58:05.230Z,100862.77
2018-07-07T10:00:38.942Z,100860.41
2018-07-07T10:03:07.420Z,100857.37
2018-07-07T10:05:35.902Z,100851.84
2018-07-07T10:08:04.767Z,100868.10
2018-07-07T10:10:33.510Z,100863.97
2018-07-07T10:13:01.930Z,100862.63
2018-07-07T10:15:30.383Z,100857.94
2018-07-07T10:17:58.800Z,100856.90
2018-07-07T10:20:27.291Z,100861.46
2018-07-07T10:22:55.837Z,100848.40
2018-07-07T10:25:24.315Z,100847.34
2018-07-07T10:27:52.757Z,100847.95
2018-07-07T10:30:21.197Z,100850.73
2018-07-07T10:32:49.730Z,100853.14
2018-07-07T10:35:18.161Z,100847.35
2018-07-07T10:37:46.550Z,100853.95
2018-07-07T10:40:14.964Z,100835.12
2018-07-07T10:42:43.377Z,100855.44
2018-07-07T10:45:11.795Z,100850.39
2018-07-07T10:47:40.216Z,100840.84
2018-07-07T10:50:08.697Z,100846.48
2018-07-07T10:52:37.160Z,100852.24
2018-07-07T10:55:05.658Z,100856.37
2018-07-07T10:57:34.089Z,100843.97
2018-07-07T11:00:02.537Z,100849.78
2018-07-07T11:02:30.975Z,100842.18
2018-07-07T11:04:59.421Z,100826.36
2018-07-07T11:07:27.858Z,100849.80
2018-07-07T11:09:56.299Z,100857.55
2018-07-07T11:12:24.802Z,100852.56
2018-07-07T11:14:53.884Z,100856.16
2018-07-07T11:17:22.428Z,100847.25
2018-07-07T11:19:50.882Z,100842.31
2018-07-07T11:22:19.319Z,100844.06
2018-07-07T11:24:47.817Z,100847.00
2018-07-07T11:27:16.250Z,100842.92
2018-07-07T11:29:44.740Z,100841.92
2018-07-07T11:32:13.153Z,100839.44
2018-07-07T11:34:41.673Z,100835.45
2018-07-07T11:37:10.164Z,100842.56
2018-07-07T11:39:38.897Z,100844.67
2018-07-07T11:42:07.412Z,100842.58
2018-07-07T11:44:35.886Z,100840.27
2018-07-07T11:47:04.441Z,100835.08
2018-07-07T11:49:32.875Z,100834.41
2018-07-07T11:52:01.306Z,100844.16
2018-07-07T11:54:29.733Z,100843.90
2018-07-07T11:56:58.109Z,100853.71
2018-07-07T11:59:26.536Z,100848.17
2018-07-07T12:01:54.994Z,100840.27
2018-07-07T12:04:23.445Z,100832.81
2018-07-07T12:06:52.173Z,100830.37
2018-07-07T12:09:21.242Z,100837.77
2018-07-07T12:11:49.654Z,100830.92
2018-07-07T12:14:18.115Z,100826.33
2018-07-07T12:16:46.525Z,100830.85
2018-07-07T12:19:14.945Z,100832.53
2018-07-07T12:21:43.376Z,100830.46
2018-07-07T12:24:11.802Z,100833.37
2018-07-07T12:26:40.245Z,100820.44
2018-07-07T12:29:08.661Z,100812.91
2018-07-07T12:31:37.067Z,100819.67
2018-07-07T12:34:05.779Z,100817.36
2018-07-07T12:36:34.240Z,100826.67
2018-07-07T12:39:02.672Z,100816.87
2018-07-07T12:41:31.137Z,100817.03
2018-07-07T12:44:00.155Z,100814.93
2018-07-07T12:46:28.611Z,100808.08
2018-07-07T12:48:57.061Z,100807.06
2018-07-07T12:51:25.558Z,100810.44
2018-07-07T12:53:53.993Z,100809.86
2018-07-07T12:56:22.501Z,100808.08
2018-07-07T12:58:51.218Z,100786.41
2018-07-07T13:01:19.675Z,100805.66
2018-07-07T13:03:48.181Z,100806.58
2018-07-07T13:06:16.653Z,100807.62
2018-07-07T13:09:08.309Z,100805.51
2018-07-07T13:11:37.067Z,100809.14
2018-07-07T13:14:05.688Z,100804.38
2018-07-07T13:16:34.242Z,100806.30
2018-07-07T13:19:02.844Z,100802.56
2018-07-07T13:21:31.280Z,100813.20
2018-07-07T13:23:59.709Z,100813.28
2018-07-07T13:26:28.169Z,100817.52
2018-07-07T13:28:56.553Z,100814.78
2018-07-07T13:31:24.937Z,100807.74
2018-07-07T13:33:53.565Z,100824.12
2018-07-07T13:36:21.998Z,100813.56
2018-07-07T13:38:50.438Z,100814.01
2018-07-07T13:41:19.321Z,100822.20
2018-07-07T13:43:49.685Z,100813.60
2018-07-07T13:46:28.452Z,100819.57
2018-07-07T13:48:56.829Z,100805.22
2018-07-07T13:51:25.275Z,100811.84
2018-07-07T13:53:53.749Z,100820.44
2018-07-07T13:56:22.202Z,100826.67
2018-07-07T13:58:50.682Z,100823.75
2018-07-07T14:01:20.190Z,100829.25
2018-07-07T14:03:48.630Z,100823.51
2018-07-07T14:06:17.543Z,100828.44
2018-07-07T14:08:46.030Z,100835.72
2018-07-07T14:11:14.505Z,100827.13
2018-07-07T14:13:43.005Z,100812.47
2018-07-07T14:16:11.513Z,100826.16
2018-07-07T14:18:39.964Z,100823.36
2018-07-07T14:21:08.630Z,100819.22
2018-07-07T14:23:37.320Z,100816.83
2018-07-07T14:26:05.712Z,100831.42
2018-07-07T14:28:34.244Z,100818.38
2018-07-07T14:31:02.781Z,100818.31
2018-07-07T14:33:31.233Z,100816.40
2018-07-07T14:35:59.737Z,100814.47
2018-07-07T14:38:34.871Z,100814.13
2018-07-07T14:41:11.708Z,100810.97
2018-07-07T14:43:52.845Z,100821.44
2018-07-07T14:46:21.660Z,100811.23
2018-07-07T14:48:50.146Z,100812.06
2018-07-07T14:51:18.658Z,100830.34
2018-07-07T14:53:47.146Z,100819.50
2018-07-07T14:56:16.706Z,100813.42
2018-07-07T14:58:45.124Z,100819.91
2018-07-07T15:01:13.574Z,100808.97
2018-07-07T15:03:42.260Z,100807.51
2018-07-07T15:06:10.908Z,100814.67
2018-07-07T15:08:39.601Z,100811.36
2018-07-07T15:11:15.807Z,100806.22
2018-07-07T15:13:47.106Z,100816.66
2018-07-07T15:16:15.591Z,100814.52
2018-07-07T15:18:44.495Z,100809.70
2018-07-07T15:21:12.927Z,100806.17
2018-07-07T15:23:41.355Z,100802.19
2018-07-07T15:26:09.748Z,100805.88
2018-07-07T15:28:38.117Z,100808.93
2018-07-07T15:31:06.709Z,100809.25
2018-07-07T15:33:35.162Z,100804.98
2018-07-07T15:36:03.626Z,100806.05
2018-07-07T15:38:32.031Z,100803.73
2018-07-07T15:41:00.487Z,100800.14
2018-07-07T15:43:28.887Z,100800.31
2018-07-07T15:45:57.353Z,100808.77
2018-07-07T15:48:25.738Z,100812.98
2018-07-07T15:50:55.325Z,100801.91
2018-07-07T15:53:23.778Z,100802.61
2018-07-07T15:55:52.254Z,100810.86
2018-07-07T15:58:20.698Z,100803.70
2018-07-07T16:00:49.161Z,100798.44
2018-07-07T16:03:17.661Z,100808.11
2018-07-07T16:05:46.097Z,100806.86
2018-07-07T16:08:14.598Z,100796.94
2018-07-07T16:10:43.067Z,100795.64
2018-07-07T16:13:11.567Z,100798.12
2018-07-07T16:15:39.999Z,100796.93
2018-07-07T16:18:08.504Z,100794.37
2018-07-07T16:20:36.941Z,100793.87
2018-07-07T16:23:05.446Z,100788.26
2018-07-07T16:25:33.840Z,100785.00
2018-07-07T16:28:02.267Z,100782.09
2018-07-07T16:30:30.698Z,100780.30
2018-07-07T16:32:59.149Z,100780.59
2018-07-07T16:35:27.573Z,100773.19
2018-07-07T16:37:56.059Z,100782.75
2018-07-07T16:40:24.492Z,100782.37
2018-07-07T16:42:53.006Z,100777.68
2018-07-07T16:45:21.639Z,100776.19
2018-07-07T16:47:50.435Z,100779.63
2018-07-07T16:50:19.091Z,100774.72
2018-07-07T16:52:47.747Z,100767.45
2018-07-07T16:55:16.797Z,100777.61
2018-07-07T16:57:45.410Z,100772.17
2018-07-07T17:00:14.125Z,100770.13
2018-07-07T17:02:43.539Z,100765.74
2018-07-07T17:05:12.309Z,100768.34
2018-07-07T17:07:41.279Z,100766.12
2018-07-07T17:10:09.729Z,100765.55
2018-07-07T17:12:38.251Z,100769.11
2018-07-07T17:15:07.067Z,100768.23
2018-07-07T17:17:35.874Z,100762.17
2018-07-07T17:20:07.699Z,100763.02
2018-07-07T17:22:38.154Z,100755.98
2018-07-07T17:25:06.811Z,100764.06
2018-07-07T17:27:35.416Z,100763.27
2018-07-07T17:30:04.624Z,100768.97
2018-07-07T17:32:33.630Z,100766.30
2018-07-07T17:35:02.626Z,100771.64
2018-07-07T17:37:31.098Z,100768.65
2018-07-07T17:39:59.581Z,100767.00
2018-07-07T17:42:28.063Z,100761.44
2018-07-07T17:44:56.529Z,100760.16
2018-07-07T17:47:25.105Z,100766.59
2018-07-07T17:49:53.877Z,100766.23
2018-07-07T17:52:23.911Z,100764.69
2018-07-07T17:54:52.553Z,100763.09
2018-07-07T17:57:28.201Z,100761.09
2018-07-07T17:59:57.348Z,100755.99
2018-07-07T18:02:26.576Z,100769.56
2018-07-07T18:04:55.938Z,100764.15
2018-07-07T18:07:30.850Z,100763.84
2018-07-07T18:09:59.512Z,100759.91
2018-07-07T18:12:28.658Z,100761.83
2018-07-07T18:14:57.695Z,100770.44
2018-07-07T18:17:26.233Z,100767.47
2018-07-07T18:19:54.946Z,100765.05
2018-07-07T18:22:23.348Z,100768.45
2018-07-07T18:24:51.830Z,100767.77
2018-07-07T18:27:20.298Z,100764.83
2018-07-07T18:29:48.714Z,100764.53
2018-07-07T18:32:17.139Z,100770.34
2018-07-07T18:34:45.569Z,100762.48
2018-07-07T18:37:14.006Z,100765.26
2018-07-07T18:39:42.493Z,100763.81
2018-07-07T18:42:10.935Z,100766.73
2018-07-07T18:44:39.998Z,100773.06
2018-07-07T18:47:08.462Z,100764.02
2018-07-07T18:49:36.913Z,100767.11
2018-07-07T18:52:05.361Z,100771.09
2018-07-07T18:54:33.786Z,100770.50
2018-07-07T18:57:02.266Z,100776.87
2018-07-07T18:59:30.759Z,100775.20
2018-07-07T19:01:59.268Z,100777.78
2018-07-07T19:04:27.661Z,100778.58
2018-07-07T19:06:56.219Z,100772.77
2018-07-07T19:09:24.848Z,100770.25
2018-07-07T19:11:53.267Z,100770.29
2018-07-07T19:14:21.826Z,100770.00
2018-07-07T19:16:50.256Z,100765.87
2018-07-07T19:19:18.711Z,100775.64
2018-07-07T19:21:52.785Z,100775.41
2018-07-07T19:24:26.482Z,100777.38
2018-07-07T19:26:55.588Z,100770.47
2018-07-07T19:29:24.171Z,100776.64
2018-07-07T19:31:57.761Z,100774.70
2018-07-07T19:34:31.364Z,100777.79
2018-07-07T19:37:05.110Z,100774.54
2018-07-07T19:39:33.518Z,100775.59
2018-07-07T19:42:02.022Z,100782.52
2018-07-07T19:44:30.440Z,100782.81
2018-07-07T19:46:58.882Z,100782.58
2018-07-07T19:49:27.335Z,100784.91
2018-07-07T19:51:55.754Z,100790.13
2018-07-07T19:54:24.235Z,100797.09
2018-07-07T19:56:52.677Z,100797.41
2018-07-07T19:59:21.202Z,100802.08
2018-07-07T20:01:50.698Z,100797.77
2018-07-07T20:04:19.138Z,100810.47
2018-07-07T20:06:47.552Z,100805.94
2018-07-07T20:09:16.111Z,100812.92
2018-07-07T20:11:44.568Z,100807.39
2018-07-07T20:14:18.590Z,100808.66
2018-07-07T20:16:58.245Z,100807.07
2018-07-07T20:19:27.904Z,100809.39
2018-07-07T20:22:02.508Z,100804.45
2018-07-07T20:24:38.183Z,100810.41
2018-07-07T20:27:12.672Z,100807.46
2018-07-07T20:29:41.125Z,100807.81
2018-07-07T20:32:14.989Z,100802.45
2018-07-07T20:34:43.409Z,100806.04
2018-07-07T20:37:11.818Z,100808.30
2018-07-07T20:39:40.269Z,100802.33
2018-07-07T20:42:08.725Z,100807.86
2018-07-07T20:44:37.155Z,100816.19
2018-07-07T20:47:05.805Z,100816.98
2018-07-07T20:49:34.275Z,100815.02
2018-07-07T20:52:02.751Z,100812.85
2018-07-07T20:54:31.190Z,100813.86
2018-07-07T20:56:59.654Z,100813.88
2018-07-07T20:59:28.100Z,100814.16
2018-07-07T21:01:56.703Z,100809.93
2018-07-07T21:04:25.198Z,100818.53
2018-07-07T21:06:53.609Z,100821.76
2018-07-07T21:09:22.291Z,100815.27
2018-07-07T21:11:50.679Z,100817.04
2018-07-07T21:14:19.102Z,100817.47
2018-07-07T21:16:47.536Z,100811.45
2018-07-07T21:19:15.961Z,100816.45
2018-07-07T21:21:44.371Z,100824.71
2018-07-07T21:24:12.794Z,100823.97
2018-07-07T21:26:41.230Z,100823.45
2018-07-07T21:29:09.658Z,100820.18
2018-07-07T21:31:38.112Z,100822.38
2018-07-07T21:34:06.577Z,100824.69
2018-07-07T21:36:35.023Z,100827.64
2018-07-07T21:39:04.064Z,100820.76
2018-07-07T21:41:32.478Z,100829.81
2018-07-07T21:44:00.857Z,100826.44
2018-07-07T21:49:04.984Z,100818.80
2018-07-07T21:51:33.542Z,100822.01
2018-07-07T21:54:02.104Z,100830.92
2018-07-07T21:56:30.565Z,100828.03
2018-07-07T21:59:04.644Z,100833.01
2018-07-07T22:01:57.859Z,100833.24
2018-07-07T22:04:32.549Z,100838.44
2018-07-07T22:07:07.442Z,100838.86
2018-07-07T22:09:36.842Z,100837.63
2018-07-07T22:12:05.377Z,100837.64
2018-07-07T22:14:34.958Z,100835.20
2018-07-07T22:17:03.501Z,100841.42
2018-07-07T22:19:31.964Z,100842.67
2018-07-07T22:22:06.448Z,100843.52
2018-07-07T22:24:35.051Z,100834.30
2018-07-07T22:27:04.754Z,100842.06
2018-07-07T22:29:33.216Z,100845.69
2018-07-07T22:32:03.018Z,100848.45
2018-07-07T22:34:39.436Z,100847.67
2018-07-07T22:37:08.107Z,100842.47
2018-07-07T22:39:37.744Z,100840.64
2018-07-07T22:42:07.490Z,100837.89
2018-07-07T22:44:36.520Z,100842.41
2018-07-07T22:47:05.176Z,100838.55
2018-07-07T22:49:33.814Z,100843.03
2018-07-07T22:52:03.143Z,100834.59
2018-07-07T22:54:31.644Z,100836.25
2018-07-07T22:57:00.120Z,100831.61
2018-07-07T22:59:28.541Z,100834.13
2018-07-07T23:01:57.085Z,100833.89
2018-07-07T23:04:25.728Z,100829.78
2018-07-07T23:06:54.300Z,100830.34
2018-07-07T23:09:22.782Z,100832.00
2018-07-07T23:11:51.191Z,100833.37
2018-07-07T23:14:19.651Z,100830.65
2018-07-07T23:16:48.136Z,100835.64
2018-07-07T23:19:16.574Z,100830.16
2018-07-07T23:21:45.028Z,100829.34
2018-07-07T23:24:13.617Z,100830.70
2018-07-07T23:26:42.087Z,100823.61
2018-07-07T23:29:10.527Z,100823.08
2018-07-07T23:31:39.043Z,100824.78
2018-07-07T23:34:07.471Z,100830.51
2018-07-07T23:36:35.916Z,100822.86
2018-07-07T23:39:05.143Z,100822.58
2018-07-07T23:41:33.573Z,100823.11
2018-07-07T23:44:02.085Z,100831.88
2018-07-07T23:46:30.525Z,100832.70
2018-07-07T23:48:58.946Z,100828.05
2018-07-07T23:51:27.514Z,100830.24
2018-07-07T23:53:55.978Z,100829.70
2018-07-07T23:56:24.480Z,100831.88
2018-07-07T23:58:53.045Z,100832.69
